Time;durP1;ratioP1;P1;durP2;ratioP2;P2;SDS_P1;SDS_P2;PMS_P1;PMS_P2;Temp;Humidity;BMP_temperature;BMP_pressure;BME280_temperature;BME280_humidity;BME280_pressure;Samples;Min_cycle;Max_cycle;Signal;HPM_P1;HPM_P2
2022/01/15 00:00:36;;;;;;;;;;;;;;;;;;5039908;28;20010;-81
2022/01/15 00:03:02;;;;;;;;;;;;;;;;;;5054713;28;19953;-84
2022/01/15 00:05:30;;;;;;;;;;;;;;;;;;5025184;28;20008;-82
2022/01/15 00:07:57;;;;;;;;;;;;;;;;;;5024431;28;19921;-85
2022/01/15 00:10:26;;;;;;;;;;;;;;;;;;5020805;28;19960;-83
2022/01/15 00:12:53;;;;;;;;;;;;;;;;;;5021468;28;19961;-82
2022/01/15 00:15:25;;;;;;;;;;;;;;;;;;5022556;28;19917;-82
2022/01/15 00:18:12;;;;;;;;;;;;;;;;;;5016713;28;19969;-82
2022/01/15 00:20:39;;;;;;;;;;;;;;;;;;5020451;28;19965;-82
2022/01/15 00:23:05;;;;;;;;;;;;;;;;;;5023258;28;19968;-80
2022/01/15 00:25:31;;;;;;;;;;;;;;;;;;5025994;28;19964;-82
2022/01/15 00:27:57;;;;;;;;;;;;;;;;;;5024816;28;20369;-81
2022/01/15 00:30:24;;;;;;;;;;;;;;;;;;5027824;28;20070;-81
2022/01/15 00:32:51;;;;;;;;;;;;;;;;;;5026735;28;20089;-84
2022/01/15 00:35:18;;;;;;;;;;;;;;;;;;5017102;28;19969;-80
2022/01/15 00:37:45;;;;;;;;;;;;;;;;;;5003247;28;19981;-79
2022/01/15 00:40:11;;;;;;;;;;;;;;;;;;5017551;28;19947;-79
2022/01/15 00:42:38;;;;;;;;;;;;;;;;;;5016334;28;19921;-80
2022/01/15 00:45:04;;;;;;;;;;;;;;;;;;5019566;28;19952;-80
2022/01/15 00:47:33;;;;;;;;;;;;;;;;;;5018108;28;19953;-80
2022/01/15 00:50:00;;;;;;;;;;;;;;;;;;5021237;28;19948;-83
2022/01/15 00:52:26;;;;;;;;;;;;;;;;;;5025309;28;19948;-82
2022/01/15 00:54:52;;;;;;;;;;;;;;;;;;5055809;28;19964;-83
2022/01/15 00:57:18;;;;;;;;;;;;;;;;;;5017496;28;19986;-83
2022/01/15 00:59:44;;;;;;;;;;;;;;;;;;5022640;28;19964;-84
2022/01/15 01:02:11;;;;;;;;;;;;;;;;;;5020989;28;19956;-83
2022/01/15 01:04:37;;;;;;;;;;;;;;;;;;5019878;28;19953;-81
2022/01/15 01:07:03;;;;;;;;;;;;;;;;;;5020997;28;19961;-85
2022/01/15 01:09:47;;;;;;;;;;;;;;;;;;5021951;28;19956;-84
2022/01/15 01:12:27;;;;;;;;;;;;;;;;;;5020165;28;20511;-82
2022/01/15 01:21:30;;;;;;;;;;;;;;;;;;5020908;28;22510;-82
2022/01/15 01:23:09;;;;;;;;;;;;;;;;;;5020188;28;22587;-81
2022/01/15 01:25:45;;;;;;;;;;;;;;;;;;5025809;28;19979;-81
2022/01/15 01:28:23;;;;;;;;;;;;;;;;;;5008398;28;21319;-84
2022/01/15 01:30:59;;;;;;;;;;;;;;;;;;5003020;28;19964;-81
2022/01/15 01:41:15;;;;;;;;;;;;;;;;;;5051852;28;19925;-80
2022/01/15 01:43:46;;;;;;;;;;;;;;;;;;5019090;28;19922;-81
2022/01/15 01:48:47;;;;;;;;;;;;;;;;;;5026233;28;19963;-80
2022/01/15 01:51:20;;;;;;;;;;;;;;;;;;5025694;28;19964;-81
2022/01/15 01:53:47;;;;;;;;;;;;;;;;;;5024490;28;19968;-81
2022/01/15 01:56:13;;;;;;;;;;;;;;;;;;5023686;28;19964;-80
2022/01/15 01:58:39;;;;;;;;;;;;;;;;;;5024174;28;19952;-81
2022/01/15 02:01:05;;;;;;;;;;;;;;;;;;5025009;28;19999;-81
2022/01/15 02:03:31;;;;;;;;;;;;;;;;;;5039638;28;20337;-81
2022/01/15 02:05:57;;;;;;;;;;;;;;;;;;5002247;28;19960;-80
2022/01/15 02:08:24;;;;;;;;;;;;;;;;;;5006890;28;19914;-80
2022/01/15 02:10:51;;;;;;;;;;;;;;;;;;5005946;28;19960;-80
2022/01/15 02:13:18;;;;;;;;;;;;;;;;;;5000771;28;19975;-79
2022/01/15 02:15:44;;;;;;;;;;;;;;;;;;5025288;28;19952;-80
2022/01/15 02:18:11;;;;;;;;;;;;;;;;;;5025911;28;19960;-80
2022/01/15 02:25:58;;;;;;;;;;;;;;;;;;5009499;28;19949;-83
2022/01/15 02:28:26;;;;;;;;;;;;;;;;;;5012174;28;19921;-83
2022/01/15 02:30:52;;;;;;;;;;;;;;;;;;5007006;28;19968;-83
2022/01/15 02:33:19;;;;;;;;;;;;;;;;;;5007594;28;19922;-84
2022/01/15 02:35:45;;;;;;;;;;;;;;;;;;5007999;28;19949;-85
2022/01/15 02:38:12;;;;;;;;;;;;;;;;;;5010039;28;19968;-85
2022/01/15 02:40:38;;;;;;;;;;;;;;;;;;5015234;28;19937;-82
2022/01/15 02:43:04;;;;;;;;;;;;;;;;;;5034445;28;20002;-83
2022/01/15 02:45:32;;;;;;;;;;;;;;;;;;5049094;28;20394;-83
2022/01/15 02:48:02;;;;;;;;;;;;;;;;;;5015857;28;19953;-84
2022/01/15 02:50:28;;;;;;;;;;;;;;;;;;5008918;28;19961;-81
2022/01/15 02:52:54;;;;;;;;;;;;;;;;;;5033616;28;19925;-82
2022/01/15 02:55:20;;;;;;;;;;;;;;;;;;5008612;28;19964;-82
2022/01/15 02:57:46;;;;;;;;;;;;;;;;;;5005058;28;20353;-82
2022/01/15 03:00:13;;;;;;;;;;;;;;;;;;5002485;28;20592;-82
2022/01/15 03:02:39;;;;;;;;;;;;;;;;;;5018228;28;19971;-82
2022/01/15 03:05:05;;;;;;;;;;;;;;;;;;5025744;28;19961;-86
2022/01/15 03:07:31;;;;;;;;;;;;;;;;;;5024597;28;19961;-81
2022/01/15 03:09:57;;;;;;;;;;;;;;;;;;5026568;28;19948;-82
2022/01/15 03:12:24;;;;;;;;;;;;;;;;;;5025399;28;19964;-82
2022/01/15 03:14:51;;;;;;;;;;;;;;;;;;5025317;28;20022;-81
2022/01/15 03:17:17;;;;;;;;;;;;;;;;;;5027290;28;20664;-82
2022/01/15 03:19:43;;;;;;;;;;;;;;;;;;5027539;28;19948;-81
2022/01/15 03:22:09;;;;;;;;;;;;;;;;;;5027713;28;19948;-82
2022/01/15 03:24:35;;;;;;;;;;;;;;;;;;5032069;28;20010;-80
2022/01/15 03:27:01;;;;;;;;;;;;;;;;;;5042682;28;19957;-84
2022/01/15 03:29:28;;;;;;;;;;;;;;;;;;5024772;28;19968;-81
2022/01/15 03:31:54;;;;;;;;;;;;;;;;;;5029868;28;19956;-85
2022/01/15 03:34:20;;;;;;;;;;;;;;;;;;5029999;28;19964;-83
2022/01/15 03:36:46;;;;;;;;;;;;;;;;;;5026437;28;19953;-85
2022/01/15 03:39:13;;;;;;;;;;;;;;;;;;5023085;28;19944;-84
2022/01/15 03:41:39;;;;;;;;;;;;;;;;;;5027666;28;19956;-85
2022/01/15 03:44:05;;;;;;;;;;;;;;;;;;5027261;28;19960;-83
2022/01/15 03:46:31;;;;;;;;;;;;;;;;;;5027224;28;20122;-85
2022/01/15 03:48:57;;;;;;;;;;;;;;;;;;5023715;28;19979;-85
2022/01/15 03:51:23;;;;;;;;;;;;;;;;;;5029103;28;19969;-84
2022/01/15 03:53:50;;;;;;;;;;;;;;;;;;5026819;28;19960;-84
2022/01/15 03:56:16;;;;;;;;;;;;;;;;;;5025556;28;19969;-84
2022/01/15 03:58:42;;;;;;;;;;;;;;;;;;5024085;28;19952;-85
2022/01/15 04:01:08;;;;;;;;;;;;;;;;;;5028910;28;19967;-83
2022/01/15 04:03:34;;;;;;;;;;;;;;;;;;5031842;28;20008;-83
2022/01/15 04:06:01;;;;;;;;;;;;;;;;;;5063210;28;19939;-84
2022/01/15 04:08:27;;;;;;;;;;;;;;;;;;5033329;28;19929;-84
2022/01/15 04:10:53;;;;;;;;;;;;;;;;;;5025375;28;19924;-85
2022/01/15 04:13:19;;;;;;;;;;;;;;;;;;5026419;28;19964;-82
2022/01/15 04:15:51;;;;;;;;;;;;;;;;;;5026062;28;19941;-82
2022/01/15 04:18:22;;;;;;;;;;;;;;;;;;5029184;28;20317;-83
2022/01/15 04:20:51;;;;;;;;;;;;;;;;;;5027940;28;19956;-83
2022/01/15 04:23:17;;;;;;;;;;;;;;;;;;5025238;28;19961;-81
2022/01/15 04:25:43;;;;;;;;;;;;;;;;;;5016828;28;20289;-81
2022/01/15 04:28:11;;;;;;;;;;;;;;;;;;5022716;28;19964;-81
2022/01/15 04:30:40;;;;;;;;;;;;;;;;;;5023814;28;20342;-82
2022/01/15 04:33:06;;;;;;;;;;;;;;;;;;5025325;28;20700;-82
2022/01/15 04:35:33;;;;;;;;;;;;;;;;;;5023907;28;19953;-81
2022/01/15 04:38:07;;;;;;;;;;;;;;;;;;5016081;28;19972;-82
2022/01/15 04:40:33;;;;;;;;;;;;;;;;;;5023520;28;19984;-82
2022/01/15 04:42:59;;;;;;;;;;;;;;;;;;5024128;28;19967;-82
2022/01/15 04:45:25;;;;;;;;;;;;;;;;;;5025363;28;19956;-82
2022/01/15 04:47:52;;;;;;;;;;;;;;;;;;5025392;28;19960;-81
2022/01/15 04:50:18;;;;;;;;;;;;;;;;;;5020585;28;19960;-82
2022/01/15 04:52:44;;;;;;;;;;;;;;;;;;5024400;28;19953;-82
2022/01/15 04:55:10;;;;;;;;;;;;;;;;;;5020638;28;19976;-83
2022/01/15 04:57:37;;;;;;;;;;;;;;;;;;5026573;28;20014;-83
2022/01/15 05:00:03;;;;;;;;;;;;;;;;;;5019183;28;19948;-82
2022/01/15 05:02:29;;;;;;;;;;;;;;;;;;5024771;28;19959;-82
2022/01/15 05:04:55;;;;;;;;;;;;;;;;;;5022173;28;20368;-82
2022/01/15 05:07:22;;;;;;;;;;;;;;;;;;5027135;28;19956;-83
2022/01/15 05:09:48;;;;;;;;;;;;;;;;;;5024741;28;19983;-82
2022/01/15 05:12:42;;;;;;;;;;;;;;;;;;5035607;28;19918;-81
2022/01/15 05:15:08;;;;;;;;;;;;;;;;;;5010700;28;19956;-81
2022/01/15 05:17:34;;;;;;;;;;;;;;;;;;5034296;28;19996;-81
2022/01/15 05:20:00;;;;;;;;;;;;;;;;;;5011553;28;19922;-82
2022/01/15 05:22:27;;;;;;;;;;;;;;;;;;5016938;28;19925;-83
2022/01/15 05:24:55;;;;;;;;;;;;;;;;;;5010472;28;19918;-81
2022/01/15 05:27:21;;;;;;;;;;;;;;;;;;5021721;28;19953;-82
2022/01/15 05:29:47;;;;;;;;;;;;;;;;;;5026065;28;19999;-83
2022/01/15 05:32:14;;;;;;;;;;;;;;;;;;5025077;28;19967;-81
2022/01/15 05:34:40;;;;;;;;;;;;;;;;;;5019945;28;19944;-81
2022/01/15 05:37:06;;;;;;;;;;;;;;;;;;5023690;28;20410;-80
2022/01/15 05:39:32;;;;;;;;;;;;;;;;;;5021031;28;19960;-81
2022/01/15 05:41:58;;;;;;;;;;;;;;;;;;5024266;28;19960;-79
2022/01/15 05:44:25;;;;;;;;;;;;;;;;;;5023400;28;19952;-81
2022/01/15 05:46:51;;;;;;;;;;;;;;;;;;5024336;28;19925;-80
2022/01/15 05:49:17;;;;;;;;;;;;;;;;;;5004401;28;19956;-81
2022/01/15 05:51:43;;;;;;;;;;;;;;;;;;5027764;28;19964;-81
2022/01/15 05:54:11;;;;;;;;;;;;;;;;;;5020544;28;19976;-81
2022/01/15 05:56:39;;;;;;;;;;;;;;;;;;5027923;28;20470;-80
2022/01/15 05:59:06;;;;;;;;;;;;;;;;;;5018372;28;20014;-80
2022/01/15 06:01:33;;;;;;;;;;;;;;;;;;5023286;28;19961;-80
2022/01/15 06:03:59;;;;;;;;;;;;;;;;;;5022756;28;19952;-80
2022/01/15 06:06:25;;;;;;;;;;;;;;;;;;5023255;28;19952;-81
2022/01/15 06:08:51;;;;;;;;;;;;;;;;;;5022790;28;19925;-84
2022/01/15 06:11:18;;;;;;;;;;;;;;;;;;5016881;28;20277;-84
2022/01/15 06:13:44;;;;;;;;;;;;;;;;;;5023908;28;19917;-81
2022/01/15 06:16:10;;;;;;;;;;;;;;;;;;5023361;28;20689;-82
2022/01/15 06:18:37;;;;;;;;;;;;;;;;;;5020846;28;19957;-82
2022/01/15 06:21:03;;;;;;;;;;;;;;;;;;5019577;28;19952;-85
2022/01/15 06:23:29;;;;;;;;;;;;;;;;;;5024723;28;20445;-85
2022/01/15 06:25:55;;;;;;;;;;;;;;;;;;5019850;28;19964;-85
2022/01/15 06:28:21;;;;;;;;;;;;;;;;;;5057729;28;19959;-83
2022/01/15 06:30:48;;;;;;;;;;;;;;;;;;5044753;28;20001;-81
2022/01/15 06:33:14;;;;;;;;;;;;;;;;;;5021663;28;19952;-80
2022/01/15 06:35:40;;;;;;;;;;;;;;;;;;5024304;28;19951;-80
2022/01/15 06:38:06;;;;;;;;;;;;;;;;;;5024188;28;20509;-80
2022/01/15 06:40:32;;;;;;;;;;;;;;;;;;5023197;28;20419;-80
2022/01/15 06:43:00;;;;;;;;;;;;;;;;;;5022467;28;19921;-79
2022/01/15 06:45:26;;;;;;;;;;;;;;;;;;5024667;28;19960;-81
2022/01/15 06:47:52;;;;;;;;;;;;;;;;;;5026600;28;19948;-81
2022/01/15 06:50:18;;;;;;;;;;;;;;;;;;5024452;28;19975;-81
2022/01/15 06:52:44;;;;;;;;;;;;;;;;;;5042245;28;19948;-80
2022/01/15 06:55:11;;;;;;;;;;;;;;;;;;5023473;28;20408;-79
2022/01/15 06:57:37;;;;;;;;;;;;;;;;;;5053972;28;20014;-80
2022/01/15 07:00:03;;;;;;;;;;;;;;;;;;5025619;28;19955;-79
2022/01/15 07:02:30;;;;;;;;;;;;;;;;;;5027307;28;19949;-80
2022/01/15 07:04:56;;;;;;;;;;;;;;;;;;5009248;28;19964;-82
2022/01/15 07:07:22;;;;;;;;;;;;;;;;;;5027140;28;20347;-81
2022/01/15 07:09:48;;;;;;;;;;;;;;;;;;5018875;28;20006;-82
2022/01/15 07:12:15;;;;;;;;;;;;;;;;;;5027440;28;20373;-83
2022/01/15 07:14:41;;;;;;;;;;;;;;;;;;5026754;28;19961;-82
2022/01/15 07:17:07;;;;;;;;;;;;;;;;;;5059385;28;19975;-84
2022/01/15 07:19:33;;;;;;;;;;;;;;;;;;5023855;28;20381;-83
2022/01/15 07:21:59;;;;;;;;;;;;;;;;;;5024310;28;19945;-82
2022/01/15 07:24:26;;;;;;;;;;;;;;;;;;5027744;28;20075;-80
2022/01/15 07:26:52;;;;;;;;;;;;;;;;;;5019174;28;20022;-82
2022/01/15 07:29:18;;;;;;;;;;;;;;;;;;5028033;28;19964;-81
2022/01/15 07:31:45;;;;;;;;;;;;;;;;;;5027728;28;19964;-82
2022/01/15 07:34:12;;;;;;;;;;;;;;;;;;5024775;28;19953;-83
2022/01/15 07:36:38;;;;;;;;;;;;;;;;;;5030500;28;20330;-83
2022/01/15 07:39:04;;;;;;;;;;;;;;;;;;5027507;28;19952;-82
2022/01/15 07:41:30;;;;;;;;;;;;;;;;;;5021761;28;20645;-83
2022/01/15 07:43:56;;;;;;;;;;;;;;;;;;5022793;28;19967;-82
2022/01/15 07:46:23;;;;;;;;;;;;;;;;;;5027712;28;20014;-82
2022/01/15 07:48:49;;;;;;;;;;;;;;;;;;5058042;28;19971;-81
2022/01/15 07:51:15;;;;;;;;;;;;;;;;;;5032791;28;19967;-81
2022/01/15 07:53:41;;;;;;;;;;;;;;;;;;5032227;28;19932;-83
2022/01/15 07:56:07;;;;;;;;;;;;;;;;;;5025805;28;20053;-82
2022/01/15 07:58:34;;;;;;;;;;;;;;;;;;5043828;28;19929;-82
2022/01/15 08:01:00;;;;;;;;;;;;;;;;;;5039734;28;19953;-80
2022/01/15 08:03:26;;;;;;;;;;;;;;;;;;5053406;28;19992;-80
2022/01/15 08:05:52;;;;;;;;;;;;;;;;;;5056477;28;20646;-80
2022/01/15 08:08:18;;;;;;;;;;;;;;;;;;5025544;28;19944;-81
2022/01/15 08:10:45;;;;;;;;;;;;;;;;;;5021678;28;20466;-81
2022/01/15 08:13:11;;;;;;;;;;;;;;;;;;5020142;28;19983;-81
2022/01/15 08:15:37;;;;;;;;;;;;;;;;;;5023802;28;19995;-80
2022/01/15 08:18:03;;;;;;;;;;;;;;;;;;5023275;28;20466;-82
2022/01/15 08:20:30;;;;;;;;;;;;;;;;;;5019021;28;20011;-81
2022/01/15 08:22:56;;;;;;;;;;;;;;;;;;5021993;28;19964;-80
2022/01/15 08:25:22;;;;;;;;;;;;;;;;;;5023247;28;19956;-81
2022/01/15 08:27:49;;;;;;;;;;;;;;;;;;5023833;28;19960;-82
2022/01/15 08:30:18;;;;;;;;;;;;;;;;;;5015491;28;20046;-81
2022/01/15 08:32:44;;;;;;;;;;;;;;;;;;5025039;28;19952;-82
2022/01/15 08:35:10;;;;;;;;;;;;;;;;;;5023047;28;19959;-82
2022/01/15 08:37:39;;;;;;;;;;;;;;;;;;5019802;28;19968;-79
2022/01/15 08:40:06;;;;;;;;;;;;;;;;;;5017181;28;20209;-83
2022/01/15 08:42:32;;;;;;;;;;;;;;;;;;5019714;28;20454;-80
2022/01/15 08:44:58;;;;;;;;;;;;;;;;;;5020337;28;19960;-79
2022/01/15 08:47:24;;;;;;;;;;;;;;;;;;5025020;28;19967;-80
2022/01/15 08:49:50;;;;;;;;;;;;;;;;;;5020010;28;20844;-80
2022/01/15 08:52:17;;;;;;;;;;;;;;;;;;5026643;28;20729;-80
2022/01/15 08:54:43;;;;;;;;;;;;;;;;;;5020707;28;19987;-79
2022/01/15 08:57:12;;;;;;;;;;;;;;;;;;5021695;28;20040;-82
2022/01/15 08:59:38;;;;;;;;;;;;;;;;;;5023887;28;19953;-81
2022/01/15 09:02:04;;;;;;;;;;;;;;;;;;5019113;28;19949;-81
2022/01/15 09:04:31;;;;;;;;;;;;;;;;;;5053215;28;19991;-79
2022/01/15 09:06:57;;;;;;;;;;;;;;;;;;5032410;28;19980;-82
2022/01/15 09:09:23;;;;;;;;;;;;;;;;;;5018947;28;20710;-80
2022/01/15 09:11:49;;;;;;;;;;;;;;;;;;5018245;28;19965;-78
2022/01/15 09:14:15;;;;;;;;;;;;;;;;;;5020011;28;19960;-80
2022/01/15 09:16:41;;;;;;;;;;;;;;;;;;5024409;28;19960;-82
2022/01/15 09:19:08;;;;;;;;;;;;;;;;;;5034450;28;20792;-85
2022/01/15 09:21:34;;;;;;;;;;;;;;;;;;5019806;28;19964;-80
2022/01/15 09:24:00;;;;;;;;;;;;;;;;;;5022280;28;20002;-80
2022/01/15 09:32:15;;;;;;;;;;;;;;;;;;5018757;28;22196;-80
2022/01/15 09:34:42;;;;;;;;;;;;;;;;;;5024848;28;19914;-79
2022/01/15 09:37:08;;;;;;;;;;;;;;;;;;5016204;28;20480;-80
2022/01/15 09:39:34;;;;;;;;;;;;;;;;;;5022856;28;19952;-79
2022/01/15 09:42:01;;;;;;;;;;;;;;;;;;5056623;28;20326;-79
2022/01/15 09:44:27;;;;;;;;;;;;;;;;;;5019567;28;20391;-79
2022/01/15 09:46:53;;;;;;;;;;;;;;;;;;5037408;28;20555;-80
2022/01/15 09:49:19;;;;;;;;;;;;;;;;;;5015152;28;19960;-79
2022/01/15 09:51:46;;;;;;;;;;;;;;;;;;5018038;28;20010;-80
2022/01/15 09:54:12;;;;;;;;;;;;;;;;;;5022669;28;19925;-79
2022/01/15 09:56:38;;;;;;;;;;;;;;;;;;5035713;28;20460;-79
2022/01/15 09:59:04;;;;;;;;;;;;;;;;;;5024581;28;19918;-80
2022/01/15 10:01:31;;;;;;;;;;;;;;;;;;5024237;28;19960;-81
2022/01/15 10:03:57;;;;;;;;;;;;;;;;;;5012196;28;19953;-80
2022/01/15 10:06:23;;;;;;;;;;;;;;;;;;5035975;28;19945;-80
2022/01/15 10:08:49;;;;;;;;;;;;;;;;;;5001199;28;19971;-80
2022/01/15 10:11:15;;;;;;;;;;;;;;;;;;5002660;28;19952;-81
2022/01/15 10:13:41;;;;;;;;;;;;;;;;;;5010112;28;19963;-79
2022/01/15 10:16:08;;;;;;;;;;;;;;;;;;4997909;28;19985;-80
2022/01/15 10:18:35;;;;;;;;;;;;;;;;;;5003269;28;19979;-79
2022/01/15 10:21:01;;;;;;;;;;;;;;;;;;5002160;28;19964;-80
2022/01/15 10:23:28;;;;;;;;;;;;;;;;;;4999722;28;20403;-79
2022/01/15 10:25:54;;;;;;;;;;;;;;;;;;5000643;28;19957;-80
2022/01/15 10:28:20;;;;;;;;;;;;;;;;;;5000678;28;19961;-79
2022/01/15 10:30:47;;;;;;;;;;;;;;;;;;4998949;28;20280;-81
2022/01/15 10:33:13;;;;;;;;;;;;;;;;;;5005729;28;19967;-79
2022/01/15 10:35:40;;;;;;;;;;;;;;;;;;5023302;28;19941;-80
2022/01/15 10:38:07;;;;;;;;;;;;;;;;;;5026639;28;19961;-80
2022/01/15 10:40:33;;;;;;;;;;;;;;;;;;5023334;28;19967;-79
2022/01/15 10:42:59;;;;;;;;;;;;;;;;;;5023273;28;19972;-79
2022/01/15 10:45:25;;;;;;;;;;;;;;;;;;5028089;28;19965;-79
2022/01/15 10:47:53;;;;;;;;;;;;;;;;;;5033451;28;19928;-80
2022/01/15 10:50:19;;;;;;;;;;;;;;;;;;5028079;28;20404;-79
2022/01/15 10:52:46;;;;;;;;;;;;;;;;;;5024167;28;19952;-80
2022/01/15 10:55:12;;;;;;;;;;;;;;;;;;5023883;28;19965;-79
2022/01/15 10:57:38;;;;;;;;;;;;;;;;;;5027019;28;20066;-81
2022/01/15 11:00:04;;;;;;;;;;;;;;;;;;5027536;28;19967;-79
2022/01/15 11:02:31;;;;;;;;;;;;;;;;;;5023630;28;20406;-81
2022/01/15 11:04:57;;;;;;;;;;;;;;;;;;5027329;28;19971;-79
2022/01/15 11:07:23;;;;;;;;;;;;;;;;;;5028987;28;19924;-79
2022/01/15 11:09:51;;;;;;;;;;;;;;;;;;5024684;28;20397;-80
2022/01/15 11:12:23;;;;;;;;;;;;;;;;;;5030676;28;19967;-80
2022/01/15 11:14:49;;;;;;;;;;;;;;;;;;5027222;28;19964;-81
2022/01/15 11:17:15;;;;;;;;;;;;;;;;;;5025515;28;19976;-80
2022/01/15 11:19:41;;;;;;;;;;;;;;;;;;5060182;28;19957;-80
2022/01/15 11:22:08;;;;;;;;;;;;;;;;;;5023002;28;20399;-81
2022/01/15 11:24:34;;;;;;;;;;;;;;;;;;5026318;28;19971;-79
2022/01/15 11:27:00;;;;;;;;;;;;;;;;;;5028542;28;19968;-80
2022/01/15 11:29:27;;;;;;;;;;;;;;;;;;5050894;28;19964;-79
2022/01/15 11:31:56;;;;;;;;;;;;;;;;;;5043048;28;19956;-80
2022/01/15 11:34:23;;;;;;;;;;;;;;;;;;5028212;28;19965;-80
2022/01/15 11:36:49;;;;;;;;;;;;;;;;;;5026510;28;19968;-79
2022/01/15 11:39:15;;;;;;;;;;;;;;;;;;5026828;28;19964;-78
2022/01/15 11:41:42;;;;;;;;;;;;;;;;;;5024147;28;19959;-79
2022/01/15 11:44:08;;;;;;;;;;;;;;;;;;5017742;28;19959;-79
2022/01/15 11:46:34;;;;;;;;;;;;;;;;;;5050633;28;19972;-79
2022/01/15 11:49:00;;;;;;;;;;;;;;;;;;5024413;28;20002;-79
2022/01/15 11:51:27;;;;;;;;;;;;;;;;;;5026099;28;19960;-80
2022/01/15 11:53:54;;;;;;;;;;;;;;;;;;5025265;28;19956;-79
2022/01/15 11:56:20;;;;;;;;;;;;;;;;;;5022998;28;20606;-80
2022/01/15 11:58:46;;;;;;;;;;;;;;;;;;5024849;28;20094;-79
2022/01/15 12:01:12;;;;;;;;;;;;;;;;;;5022601;28;19956;-80
2022/01/15 12:03:39;;;;;;;;;;;;;;;;;;5049059;28;19963;-79
2022/01/15 12:06:05;;;;;;;;;;;;;;;;;;5024121;28;19968;-80
2022/01/15 12:08:32;;;;;;;;;;;;;;;;;;5024599;28;19952;-79
2022/01/15 12:10:58;;;;;;;;;;;;;;;;;;5025574;28;20325;-79
2022/01/15 12:13:24;;;;;;;;;;;;;;;;;;5027004;28;19921;-79
2022/01/15 12:15:51;;;;;;;;;;;;;;;;;;5022752;28;19964;-79
2022/01/15 12:18:17;;;;;;;;;;;;;;;;;;5018491;28;19964;-79
2022/01/15 12:20:44;;;;;;;;;;;;;;;;;;5022181;28;19917;-80
2022/01/15 12:23:10;;;;;;;;;;;;;;;;;;5027697;28;19957;-79
2022/01/15 12:25:36;;;;;;;;;;;;;;;;;;5022912;28;20357;-80
2022/01/15 12:28:03;;;;;;;;;;;;;;;;;;5023110;28;19972;-80
2022/01/15 12:30:29;;;;;;;;;;;;;;;;;;5021452;28;19956;-80
2022/01/15 12:33:00;;;;;;;;;;;;;;;;;;5025687;28;20275;-80
2022/01/15 12:35:26;;;;;;;;;;;;;;;;;;5025656;28;19917;-79
2022/01/15 12:37:52;;;;;;;;;;;;;;;;;;5027576;28;19968;-79
2022/01/15 12:40:20;;;;;;;;;;;;;;;;;;5026394;28;20377;-80
2022/01/15 12:42:47;;;;;;;;;;;;;;;;;;5025651;28;19952;-80
2022/01/15 12:45:13;;;;;;;;;;;;;;;;;;5024400;28;19960;-80
2022/01/15 12:47:39;;;;;;;;;;;;;;;;;;5022477;28;20050;-78
2022/01/15 12:50:05;;;;;;;;;;;;;;;;;;5023891;28;20492;-79
2022/01/15 12:52:31;;;;;;;;;;;;;;;;;;5024288;28;19951;-79
2022/01/15 12:54:58;;;;;;;;;;;;;;;;;;5012985;28;20365;-79
2022/01/15 12:57:24;;;;;;;;;;;;;;;;;;5021716;28;19957;-80
2022/01/15 12:59:50;;;;;;;;;;;;;;;;;;5024443;28;20026;-79
2022/01/15 13:02:16;;;;;;;;;;;;;;;;;;5025172;28;19963;-80
2022/01/15 13:04:42;;;;;;;;;;;;;;;;;;5024108;28;20387;-79
2022/01/15 13:07:08;;;;;;;;;;;;;;;;;;5018995;28;19967;-80
2022/01/15 13:09:35;;;;;;;;;;;;;;;;;;5018804;28;20487;-81
2022/01/15 13:12:01;;;;;;;;;;;;;;;;;;5014536;28;19945;-79
2022/01/15 13:14:27;;;;;;;;;;;;;;;;;;5020473;28;20022;-80
2022/01/15 13:16:53;;;;;;;;;;;;;;;;;;5025075;28;19944;-84
2022/01/15 13:19:19;;;;;;;;;;;;;;;;;;5023612;28;19976;-84
2022/01/15 13:21:46;;;;;;;;;;;;;;;;;;5024250;28;19957;-84
2022/01/15 13:24:12;;;;;;;;;;;;;;;;;;5021257;28;19949;-84
2022/01/15 13:26:38;;;;;;;;;;;;;;;;;;5020660;28;19961;-83
2022/01/15 13:29:04;;;;;;;;;;;;;;;;;;5017175;28;19976;-85
2022/01/15 13:31:31;;;;;;;;;;;;;;;;;;5017424;28;20377;-82
2022/01/15 13:33:57;;;;;;;;;;;;;;;;;;5018962;28;19967;-82
2022/01/15 13:36:23;;;;;;;;;;;;;;;;;;5020474;28;20355;-81
2022/01/15 13:38:49;;;;;;;;;;;;;;;;;;5020284;28;19967;-80
2022/01/15 13:41:16;;;;;;;;;;;;;;;;;;5016718;28;19975;-80
2022/01/15 13:43:42;;;;;;;;;;;;;;;;;;5017055;28;19964;-84
2022/01/15 13:46:08;;;;;;;;;;;;;;;;;;5015618;28;19968;-84
2022/01/15 13:48:34;;;;;;;;;;;;;;;;;;5019525;28;19968;-84
2022/01/15 13:53:45;;;;;;;;;;;;;;;;;;5030004;28;19925;-85
2022/01/15 13:56:12;;;;;;;;;;;;;;;;;;5043635;28;20498;-88
2022/01/15 13:58:38;;;;;;;;;;;;;;;;;;5030800;28;19948;-89
2022/01/15 14:01:05;;;;;;;;;;;;;;;;;;5031797;28;19925;-90
2022/01/15 14:03:31;;;;;;;;;;;;;;;;;;5031512;28;19917;-89
2022/01/15 14:05:57;;;;;;;;;;;;;;;;;;5033761;28;19918;-88
2022/01/15 14:08:24;;;;;;;;;;;;;;;;;;5027527;28;19944;-87
2022/01/15 14:10:53;;;;;;;;;;;;;;;;;;5025315;28;19913;-87
2022/01/15 14:13:19;;;;;;;;;;;;;;;;;;5033303;28;19921;-86
2022/01/15 14:15:46;;;;;;;;;;;;;;;;;;5032801;28;19924;-86
2022/01/15 14:18:14;;;;;;;;;;;;;;;;;;5034360;28;19940;-87
2022/01/15 14:23:19;;;;;;;;;;;;;;;;;;5014404;28;20904;-87
2022/01/15 14:25:46;;;;;;;;;;;;;;;;;;5027436;28;19937;-85
2022/01/15 14:28:16;;;;;;;;;;;;;;;;;;5025760;28;19953;-86
2022/01/15 14:30:43;;;;;;;;;;;;;;;;;;5021286;28;20340;-86
2022/01/15 14:33:10;;;;;;;;;;;;;;;;;;5024510;28;20305;-87
2022/01/15 14:35:36;;;;;;;;;;;;;;;;;;5025704;28;20004;-87
2022/01/15 14:38:02;;;;;;;;;;;;;;;;;;5022868;28;19968;-85
2022/01/15 14:40:29;;;;;;;;;;;;;;;;;;5023983;28;19970;-87
2022/01/15 14:42:55;;;;;;;;;;;;;;;;;;5043811;28;19952;-86
2022/01/15 14:45:21;;;;;;;;;;;;;;;;;;5022162;28;20695;-85
2022/01/15 14:47:47;;;;;;;;;;;;;;;;;;5020760;28;20492;-85
2022/01/15 14:50:14;;;;;;;;;;;;;;;;;;5027317;28;19961;-92
2022/01/15 14:52:40;;;;;;;;;;;;;;;;;;5036671;28;19905;-88
2022/01/15 14:55:06;;;;;;;;;;;;;;;;;;5027907;28;19925;-87
2022/01/15 14:57:32;;;;;;;;;;;;;;;;;;5021862;28;19957;-86
2022/01/15 14:59:58;;;;;;;;;;;;;;;;;;5023287;28;19921;-86
2022/01/15 15:02:25;;;;;;;;;;;;;;;;;;5035636;28;20354;-84
2022/01/15 15:04:51;;;;;;;;;;;;;;;;;;5019439;28;19952;-86
2022/01/15 15:07:17;;;;;;;;;;;;;;;;;;5021283;28;20373;-86
2022/01/15 15:09:43;;;;;;;;;;;;;;;;;;5021495;28;19932;-86
2022/01/15 15:12:10;;;;;;;;;;;;;;;;;;5033707;28;20753;-87
2022/01/15 15:14:37;;;;;;;;;;;;;;;;;;5023497;28;19913;-86
2022/01/15 15:17:04;;;;;;;;;;;;;;;;;;5023695;28;19956;-85
2022/01/15 15:19:30;;;;;;;;;;;;;;;;;;5031816;28;20347;-87
2022/01/15 15:21:57;;;;;;;;;;;;;;;;;;5029903;28;19959;-86
2022/01/15 15:24:23;;;;;;;;;;;;;;;;;;5033837;28;19944;-86
2022/01/15 15:26:49;;;;;;;;;;;;;;;;;;5025950;28;19953;-86
2022/01/15 15:29:17;;;;;;;;;;;;;;;;;;5024992;28;20396;-84
2022/01/15 15:31:43;;;;;;;;;;;;;;;;;;5023635;28;19921;-85
2022/01/15 15:34:10;;;;;;;;;;;;;;;;;;5018992;28;19968;-86
2022/01/15 15:36:37;;;;;;;;;;;;;;;;;;5020654;28;19964;-86
2022/01/15 15:39:03;;;;;;;;;;;;;;;;;;5025289;28;20029;-85
2022/01/15 15:41:29;;;;;;;;;;;;;;;;;;5033090;28;20430;-85
2022/01/15 15:43:56;;;;;;;;;;;;;;;;;;5023161;28;19917;-83
2022/01/15 15:46:22;;;;;;;;;;;;;;;;;;5022438;28;19949;-84
2022/01/15 15:48:48;;;;;;;;;;;;;;;;;;5026929;28;20805;-86
2022/01/15 15:51:14;;;;;;;;;;;;;;;;;;5028682;28;19921;-86
2022/01/15 15:53:41;;;;;;;;;;;;;;;;;;5034307;28;19921;-85
2022/01/15 15:56:07;;;;;;;;;;;;;;;;;;5039650;28;20523;-85
2022/01/15 15:58:36;;;;;;;;;;;;;;;;;;5039162;28;20030;-84
2022/01/15 16:01:02;;;;;;;;;;;;;;;;;;5049574;28;19913;-86
2022/01/15 16:03:32;;;;;;;;;;;;;;;;;;5040277;28;20484;-86
2022/01/15 16:06:02;;;;;;;;;;;;;;;;;;5036640;28;19941;-84
2022/01/15 16:08:29;;;;;;;;;;;;;;;;;;5051330;28;20296;-85
2022/01/15 16:10:55;;;;;;;;;;;;;;;;;;5032899;28;19987;-85
2022/01/15 16:13:21;;;;;;;;;;;;;;;;;;5043395;28;19941;-84
2022/01/15 16:15:47;;;;;;;;;;;;;;;;;;5029961;28;20320;-84
2022/01/15 16:18:13;;;;;;;;;;;;;;;;;;5029311;28;19948;-84
2022/01/15 16:20:39;;;;;;;;;;;;;;;;;;5032507;28;20725;-85
2022/01/15 16:23:06;;;;;;;;;;;;;;;;;;5028424;28;19925;-85
2022/01/15 16:25:32;;;;;;;;;;;;;;;;;;5042824;28;20362;-84
2022/01/15 16:27:58;;;;;;;;;;;;;;;;;;5023091;28;19944;-85
2022/01/15 16:30:24;;;;;;;;;;;;;;;;;;5046345;28;19959;-84
2022/01/15 16:32:50;;;;;;;;;;;;;;;;;;5027273;28;19917;-85
2022/01/15 16:35:17;;;;;;;;;;;;;;;;;;5062871;28;20254;-83
2022/01/15 16:37:45;;;;;;;;;;;;;;;;;;5030126;28;19932;-82
2022/01/15 16:40:12;;;;;;;;;;;;;;;;;;5012137;28;21324;-85
2022/01/15 16:42:38;;;;;;;;;;;;;;;;;;5005313;28;19965;-84
2022/01/15 16:45:04;;;;;;;;;;;;;;;;;;5029526;28;19964;-85
2022/01/15 16:47:30;;;;;;;;;;;;;;;;;;5010557;28;20873;-88
2022/01/15 16:49:57;;;;;;;;;;;;;;;;;;5007952;28;19956;-85
2022/01/15 16:52:24;;;;;;;;;;;;;;;;;;5007301;28;19955;-85
2022/01/15 16:54:50;;;;;;;;;;;;;;;;;;5002498;28;19964;-84
2022/01/15 16:57:16;;;;;;;;;;;;;;;;;;5012938;28;19917;-85
2022/01/15 16:59:43;;;;;;;;;;;;;;;;;;5008702;28;19940;-86
2022/01/15 17:02:09;;;;;;;;;;;;;;;;;;4998419;28;20012;-84
2022/01/15 17:04:36;;;;;;;;;;;;;;;;;;5035332;28;19922;-85
2022/01/15 17:07:02;;;;;;;;;;;;;;;;;;5006382;28;19925;-85
2022/01/15 17:09:29;;;;;;;;;;;;;;;;;;5008957;28;19918;-85
2022/01/15 17:11:55;;;;;;;;;;;;;;;;;;5014444;28;20110;-83
2022/01/15 17:14:21;;;;;;;;;;;;;;;;;;5007810;28;19967;-83